createdAt,value
2018-11-05T00:00:32.576Z,7.99
2018-11-05T00:03:01.486Z,7.88
2018-11-05T00:05:30.407Z,7.81
2018-11-05T00:07:59.316Z,7.69
2018-11-05T00:10:28.262Z,7.67
2018-11-05T00:12:57.163Z,7.65
2018-11-05T00:15:26.089Z,7.57
2018-11-05T00:17:55.033Z,7.55
2018-11-05T00:20:23.975Z,7.59
2018-11-05T00:22:52.936Z,7.59
2018-11-05T00:25:21.880Z,7.57
2018-11-05T00:27:50.771Z,7.57
2018-11-05T00:30:19.677Z,7.56
2018-11-05T00:32:48.655Z,7.56
2018-11-05T00:35:17.521Z,7.61
2018-11-05T00:37:46.398Z,7.55
2018-11-05T00:40:16.349Z,7.48
2018-11-05T00:42:45.866Z,7.44
2018-11-05T00:45:15.252Z,7.41
2018-11-05T00:47:44.483Z,7.37
2018-11-05T00:50:14.672Z,7.38
2018-11-05T00:52:43.562Z,7.37
2018-11-05T00:55:13.084Z,7.37
2018-11-05T00:57:41.984Z,7.35
2018-11-05T01:00:15.584Z,7.34
2018-11-05T01:02:44.551Z,7.38
2018-11-05T01:05:17.060Z,7.38
2018-11-05T01:07:46.472Z,7.36
2018-11-05T01:10:16.208Z,7.66
2018-11-05T01:12:45.145Z,7.43
2018-11-05T01:15:17.759Z,7.39
2018-11-05T01:17:46.646Z,7.36
2018-11-05T01:20:16.139Z,7.32
2018-11-05T01:22:45.059Z,7.37
2018-11-05T01:25:14.015Z,7.40
2018-11-05T01:27:42.954Z,7.33
2018-11-05T01:30:13.106Z,7.71
2018-11-05T01:32:42.240Z,7.47
2018-11-05T01:35:12.490Z,7.83
2018-11-05T01:37:41.402Z,7.99
2018-11-05T01:40:12.704Z,7.67
2018-11-05T01:42:41.783Z,7.55
2018-11-05T01:45:11.918Z,7.48
2018-11-05T01:47:41.729Z,7.84
2018-11-05T01:50:12.446Z,7.58
2018-11-05T01:52:41.828Z,7.58
2018-11-05T01:55:11.215Z,7.53
2018-11-05T01:57:40.654Z,7.53
2018-11-05T02:00:11.737Z,7.86
2018-11-05T02:02:40.614Z,8.00
2018-11-05T02:05:10.508Z,7.72
2018-11-05T02:07:39.982Z,7.66
2018-11-05T02:10:11.324Z,7.53
2018-11-05T02:12:40.461Z,7.43
2018-11-05T02:15:09.916Z,7.36
2018-11-05T02:17:39.387Z,7.27
2018-11-05T02:20:08.384Z,7.29
2018-11-05T02:22:37.525Z,7.24
2018-11-05T02:25:07.443Z,7.22
2018-11-05T02:27:36.331Z,7.22
2018-11-05T02:30:08.436Z,7.25
2018-11-05T02:32:37.345Z,7.29
2018-11-05T02:35:07.431Z,7.64
2018-11-05T02:37:36.425Z,7.36
2018-11-05T02:40:07.979Z,7.42
2018-11-05T02:42:36.882Z,7.38
2018-11-05T02:45:07.120Z,7.37
2018-11-05T02:47:36.153Z,7.29
2018-11-05T02:50:05.941Z,7.28
2018-11-05T02:52:34.856Z,7.27
2018-11-05T02:55:04.015Z,7.33
2018-11-05T02:57:32.939Z,7.33
2018-11-05T03:00:01.865Z,7.32
2018-11-05T03:02:30.767Z,7.35
2018-11-05T03:04:59.737Z,7.29
2018-11-05T03:07:28.655Z,7.65
2018-11-05T03:09:57.610Z,7.47
2018-11-05T03:12:26.521Z,7.48
2018-11-05T03:14:55.461Z,7.49
2018-11-05T03:17:24.349Z,7.51
2018-11-05T03:19:53.265Z,7.47
2018-11-05T03:22:22.539Z,7.44
2018-11-05T03:24:51.456Z,7.41
2018-11-05T03:27:20.379Z,7.36
2018-11-05T03:29:49.294Z,7.38
2018-11-05T03:32:18.223Z,7.38
2018-11-05T03:34:47.194Z,7.28
2018-11-05T03:37:16.144Z,7.23
2018-11-05T03:39:45.045Z,7.20
2018-11-05T03:42:14.021Z,7.21
2018-11-05T03:44:42.941Z,7.19
2018-11-05T03:47:11.912Z,7.22
2018-11-05T03:49:40.861Z,7.51
2018-11-05T03:52:09.823Z,7.26
2018-11-05T03:54:38.794Z,7.20
2018-11-05T03:57:07.797Z,7.18
2018-11-05T03:59:36.792Z,7.10
2018-11-05T04:02:05.954Z,7.05
2018-11-05T04:04:34.861Z,7.07
2018-11-05T04:07:03.814Z,7.10
2018-11-05T04:09:32.763Z,7.12
2018-11-05T04:12:01.697Z,7.07
2018-11-05T04:14:30.624Z,7.15
2018-11-05T04:16:59.544Z,7.26
2018-11-05T04:19:28.449Z,7.30
2018-11-05T04:21:57.449Z,7.33
2018-11-05T04:24:26.312Z,7.44
2018-11-05T04:26:55.249Z,7.46
2018-11-05T04:29:24.152Z,7.76
2018-11-05T04:31:53.060Z,7.58
2018-11-05T04:34:21.980Z,7.62
2018-11-05T04:36:50.905Z,7.62
2018-11-05T04:39:19.856Z,7.69
2018-11-05T04:41:48.783Z,7.71
2018-11-05T04:44:17.711Z,7.74
2018-11-05T04:46:46.632Z,7.77
2018-11-05T04:49:15.564Z,7.84
2018-11-05T04:51:44.449Z,7.85
2018-11-05T04:54:13.401Z,7.81
2018-11-05T04:56:42.292Z,7.82
2018-11-05T04:59:11.191Z,7.78
2018-11-05T05:01:40.092Z,7.75
2018-11-05T05:04:09.015Z,7.78
2018-11-05T05:06:37.910Z,7.78
2018-11-05T05:09:09.482Z,7.82
2018-11-05T05:11:38.431Z,7.80
2018-11-05T05:14:07.517Z,7.83
2018-11-05T05:16:36.832Z,7.88
2018-11-05T05:19:05.831Z,7.85
2018-11-05T05:21:34.738Z,7.85
2018-11-05T05:24:03.872Z,7.85
2018-11-05T05:26:32.800Z,7.87
2018-11-05T05:29:01.784Z,7.88
2018-11-05T05:31:30.656Z,7.90
2018-11-05T05:33:59.564Z,7.92
2018-11-05T05:36:28.659Z,7.90
2018-11-05T05:38:57.548Z,8.20
2018-11-05T05:41:26.498Z,7.99
2018-11-05T05:43:55.347Z,7.99
2018-11-05T05:46:24.275Z,8.02
2018-11-05T05:48:53.295Z,8.32
2018-11-05T05:51:22.132Z,8.13
2018-11-05T05:53:51.064Z,8.09
2018-11-05T05:56:19.982Z,8.11
2018-11-05T05:58:48.936Z,8.06
2018-11-05T06:01:17.863Z,8.03
2018-11-05T06:03:46.775Z,7.99
2018-11-05T06:06:15.811Z,8.01
2018-11-05T06:08:44.613Z,8.29
2018-11-05T06:11:13.541Z,8.12
2018-11-05T06:13:42.455Z,8.09
2018-11-05T06:16:11.465Z,8.09
2018-11-05T06:18:40.634Z,8.06
2018-11-05T06:21:09.580Z,8.03
2018-11-05T06:23:38.504Z,8.00
2018-11-05T06:26:07.491Z,7.99
2018-11-05T06:28:36.504Z,8.00
2018-11-05T06:31:05.930Z,8.02
2018-11-05T06:33:34.953Z,7.99
2018-11-05T06:36:03.870Z,7.94
2018-11-05T06:38:32.774Z,7.89
2018-11-05T06:41:01.719Z,7.83
2018-11-05T06:43:30.638Z,7.78
2018-11-05T06:45:59.585Z,7.73
2018-11-05T06:48:28.495Z,7.71
2018-11-05T06:50:57.409Z,7.71
2018-11-05T06:53:26.319Z,7.73
2018-11-05T06:55:55.274Z,7.71
2018-11-05T06:58:24.198Z,7.75
2018-11-05T07:00:53.108Z,7.84
2018-11-05T07:03:22.018Z,8.12
2018-11-05T07:05:51.067Z,8.03
2018-11-05T07:08:19.907Z,8.05
2018-11-05T07:10:48.857Z,8.06
2018-11-05T07:13:17.828Z,8.06
2018-11-05T07:15:46.737Z,8.00
2018-11-05T07:18:15.758Z,8.08
2018-11-05T07:20:44.625Z,8.03
2018-11-05T07:23:13.593Z,8.04
2018-11-05T07:25:42.484Z,8.40
2018-11-05T07:28:11.404Z,8.27
2018-11-05T07:30:40.349Z,8.22
2018-11-05T07:33:09.436Z,8.58
2018-11-05T07:35:38.339Z,8.43
2018-11-05T07:38:07.452Z,8.47
2018-11-05T07:40:36.356Z,8.48
2018-11-05T07:43:05.702Z,8.53
2018-11-05T07:45:34.668Z,8.54
2018-11-05T07:48:03.714Z,8.59
2018-11-05T07:50:32.689Z,8.91
2018-11-05T07:53:01.582Z,8.68
2018-11-05T07:55:30.524Z,8.80
2018-11-05T07:57:59.426Z,8.81
2018-11-05T08:00:46.301Z,8.84
2018-11-05T08:03:15.186Z,9.21
2018-11-05T08:05:44.097Z,9.01
2018-11-05T08:08:13.136Z,8.99
2018-11-05T08:10:41.941Z,9.03
2018-11-05T08:13:10.860Z,9.44
2018-11-05T08:15:39.806Z,9.31
2018-11-05T08:18:08.769Z,9.31
2018-11-05T08:20:37.747Z,9.34
2018-11-05T08:23:06.877Z,9.44
2018-11-05T08:25:35.785Z,9.46
2018-11-05T08:28:04.837Z,9.83
2018-11-05T08:30:33.749Z,9.74
2018-11-05T08:33:02.688Z,9.70
2018-11-05T08:35:31.609Z,10.05
2018-11-05T08:38:00.637Z,9.92
2018-11-05T08:40:29.547Z,9.96
2018-11-05T08:42:58.465Z,10.04
2018-11-05T08:45:28.864Z,10.03
2018-11-05T08:47:57.811Z,9.98
2018-11-05T08:50:26.839Z,10.12
2018-11-05T08:52:55.772Z,10.23
2018-11-05T08:55:25.834Z,10.70
2018-11-05T08:57:54.755Z,10.84
2018-11-05T09:00:41.384Z,11.05
2018-11-05T09:03:10.451Z,11.31
2018-11-05T09:05:39.430Z,11.42
2018-11-05T09:08:08.717Z,11.39
2018-11-05T09:10:38.024Z,11.44
2018-11-05T09:13:07.224Z,11.37
2018-11-05T09:15:36.229Z,11.36
2018-11-05T09:18:05.237Z,11.33
2018-11-05T09:20:34.274Z,11.44
2018-11-05T09:23:03.209Z,11.50
2018-11-05T09:25:32.182Z,11.57
2018-11-05T09:28:01.163Z,11.66
2018-11-05T09:30:30.037Z,11.87
2018-11-05T09:32:59.013Z,12.13
2018-11-05T09:35:27.965Z,12.47
2018-11-05T09:37:56.939Z,12.63
2018-11-05T09:40:25.939Z,12.89
2018-11-05T09:42:54.933Z,13.39
2018-11-05T09:45:25.186Z,14.11
2018-11-05T09:47:54.097Z,14.65
2018-11-05T09:50:23.089Z,14.92
2018-11-05T09:52:52.070Z,14.83
2018-11-05T09:55:21.037Z,14.77
2018-11-05T09:57:50.036Z,14.60
2018-11-05T10:00:23.218Z,14.67
2018-11-05T10:03:10.256Z,14.45
2018-11-05T10:05:39.061Z,14.38
2018-11-05T10:08:08.099Z,14.36
2018-11-05T10:10:37.079Z,14.30
2018-11-05T10:13:06.172Z,14.16
2018-11-05T10:15:35.075Z,13.99
2018-11-05T10:18:04.111Z,13.95
2018-11-05T10:20:33.029Z,14.04
2018-11-05T10:23:01.997Z,13.89
2018-11-05T10:25:30.960Z,13.89
2018-11-05T10:28:03.441Z,14.06
2018-11-05T10:30:32.537Z,13.76
2018-11-05T10:33:01.566Z,14.07
2018-11-05T10:35:48.418Z,14.04
2018-11-05T10:38:17.359Z,13.81
2018-11-05T10:40:46.398Z,13.16
2018-11-05T10:43:15.355Z,12.85
2018-11-05T10:45:44.305Z,12.54
2018-11-05T10:48:13.528Z,12.39
2018-11-05T10:50:42.541Z,12.60
2018-11-05T10:53:11.483Z,12.15
2018-11-05T10:55:40.425Z,12.11
2018-11-05T10:58:09.608Z,12.08
2018-11-05T11:00:57.342Z,12.12
2018-11-05T11:03:31.645Z,12.17
2018-11-05T11:06:01.729Z,12.27
2018-11-05T11:08:32.324Z,12.30
2018-11-05T11:11:01.694Z,12.33
2018-11-05T11:13:31.702Z,12.24
2018-11-05T11:16:01.228Z,12.06
2018-11-05T11:18:31.047Z,12.30
2018-11-05T11:21:00.050Z,11.99
2018-11-05T11:23:29.429Z,12.00
2018-11-05T11:25:58.388Z,11.98
2018-11-05T11:28:27.599Z,11.83
2018-11-05T11:30:56.369Z,11.81
2018-11-05T11:33:25.302Z,11.80
2018-11-05T11:35:55.447Z,11.85
2018-11-05T11:38:24.563Z,11.87
2018-11-05T11:40:54.133Z,11.67
2018-11-05T11:43:23.058Z,11.73
2018-11-05T11:45:52.021Z,11.76
2018-11-05T11:48:20.958Z,11.73
2018-11-05T11:50:49.878Z,11.77
2018-11-05T11:53:19.069Z,11.68
2018-11-05T11:55:47.982Z,11.74
2018-11-05T11:58:16.900Z,11.75
2018-11-05T12:00:45.894Z,11.74
2018-11-05T12:03:14.826Z,11.62
2018-11-05T12:05:43.805Z,11.68
2018-11-05T12:08:12.802Z,11.68
2018-11-05T12:10:41.801Z,11.58
2018-11-05T12:13:10.885Z,11.36
2018-11-05T12:15:39.863Z,11.43
2018-11-05T12:18:08.948Z,11.37
2018-11-05T12:20:37.828Z,11.47
2018-11-05T12:23:07.013Z,11.51
2018-11-05T12:25:36.042Z,11.59
2018-11-05T12:28:05.014Z,11.52
2018-11-05T12:30:33.917Z,11.46
2018-11-05T12:33:02.937Z,11.48
2018-11-05T12:35:31.887Z,11.55
2018-11-05T12:38:00.830Z,11.62
2018-11-05T12:40:29.737Z,11.63
2018-11-05T12:42:58.698Z,11.63
2018-11-05T12:45:27.654Z,11.55
2018-11-05T12:47:56.606Z,11.55
2018-11-05T12:50:25.687Z,11.58
2018-11-05T12:52:55.512Z,11.43
2018-11-05T12:55:24.630Z,11.35
2018-11-05T12:57:53.673Z,11.44
2018-11-05T13:00:26.092Z,11.43
2018-11-05T13:02:58.847Z,11.38
2018-11-05T13:05:32.471Z,11.21
2018-11-05T13:08:01.670Z,11.33
2018-11-05T13:10:30.624Z,11.33
2018-11-05T13:12:59.748Z,11.68
2018-11-05T13:15:28.880Z,11.52
2018-11-05T13:17:57.517Z,11.48
2018-11-05T13:20:26.460Z,11.53
2018-11-05T13:22:55.368Z,11.57
2018-11-05T13:25:24.334Z,11.64
2018-11-05T13:27:53.255Z,11.68
2018-11-05T13:30:22.319Z,11.96
2018-11-05T13:32:51.238Z,11.78
2018-11-05T13:35:21.381Z,12.00
2018-11-05T13:37:50.763Z,11.79
2018-11-05T13:40:20.549Z,12.03
2018-11-05T13:42:50.018Z,11.74
2018-11-05T13:45:19.451Z,11.71
2018-11-05T13:47:48.985Z,11.76
2018-11-05T13:50:17.678Z,12.09
2018-11-05T13:52:46.398Z,11.87
2018-11-05T13:55:16.317Z,11.92
2018-11-05T13:57:46.497Z,11.82
2018-11-05T14:00:16.595Z,11.80
2018-11-05T14:02:45.653Z,11.86
2018-11-05T14:05:14.744Z,11.78
2018-11-05T14:07:43.721Z,11.64
2018-11-05T14:10:17.011Z,11.71
2018-11-05T14:12:46.570Z,11.72
2018-11-05T14:15:15.360Z,11.71
2018-11-05T14:17:44.787Z,11.78
2018-11-05T14:20:14.771Z,12.10
2018-11-05T14:22:43.940Z,11.83
2018-11-05T14:25:16.917Z,12.17
2018-11-05T14:27:47.499Z,11.99
2018-11-05T14:30:16.776Z,12.30
2018-11-05T14:32:46.392Z,12.13
2018-11-05T14:35:15.433Z,12.11
2018-11-05T14:37:44.358Z,12.07
2018-11-05T14:40:14.605Z,12.06
2018-11-05T14:42:43.583Z,12.12
2018-11-05T14:45:19.892Z,12.39
2018-11-05T14:47:50.427Z,12.13
2018-11-05T14:50:20.879Z,12.17
2018-11-05T14:52:49.697Z,12.21
2018-11-05T14:55:19.714Z,12.26
2018-11-05T14:57:49.959Z,12.55
2018-11-05T15:00:28.593Z,12.36
2018-11-05T15:02:58.141Z,12.38
2018-11-05T15:05:27.089Z,12.27
2018-11-05T15:07:55.993Z,12.24
2018-11-05T15:10:25.783Z,12.06
2018-11-05T15:12:54.690Z,12.10
2018-11-05T15:15:23.932Z,12.04
2018-11-05T15:17:52.875Z,12.06
2018-11-05T15:20:22.786Z,11.99
2018-11-05T15:22:51.778Z,11.92
2018-11-05T15:25:21.368Z,11.88
2018-11-05T15:27:50.308Z,11.82
2018-11-05T15:30:20.557Z,12.10
2018-11-05T15:32:49.536Z,11.83
2018-11-05T15:35:18.422Z,11.78
2018-11-05T15:37:47.378Z,11.74
2018-11-05T15:40:17.556Z,11.67
2018-11-05T15:42:46.487Z,11.61
2018-11-05T15:45:16.664Z,11.62
2018-11-05T15:47:45.579Z,11.50
2018-11-05T15:50:15.851Z,11.55
2018-11-05T15:52:45.140Z,11.53
2018-11-05T15:55:13.972Z,11.48
2018-11-05T15:57:42.884Z,11.48
2018-11-05T16:00:24.700Z,11.44
2018-11-05T16:03:00.868Z,11.45
2018-11-05T16:05:29.802Z,11.43
2018-11-05T16:07:58.784Z,11.40
2018-11-05T16:10:27.723Z,11.41
2018-11-05T16:12:56.637Z,11.43
2018-11-05T16:15:25.553Z,11.42
2018-11-05T16:17:54.425Z,11.38
2018-11-05T16:20:23.779Z,11.40
2018-11-05T16:22:53.089Z,11.48
2018-11-05T16:25:22.052Z,11.46
2018-11-05T16:27:50.900Z,11.72
2018-11-05T16:30:20.971Z,11.49
2018-11-05T16:32:50.496Z,11.46
2018-11-05T16:35:19.443Z,11.44
2018-11-05T16:37:48.395Z,11.45
2018-11-05T16:40:18.179Z,11.43
2018-11-05T16:42:48.198Z,11.39
2018-11-05T16:45:17.113Z,11.42
2018-11-05T16:47:46.290Z,11.41
2018-11-05T16:50:25.732Z,11.41
2018-11-05T16:52:54.746Z,11.36
2018-11-05T16:55:23.904Z,11.38
2018-11-05T16:57:52.919Z,11.60
2018-11-05T17:00:21.728Z,11.38
2018-11-05T17:02:50.839Z,11.39
2018-11-05T17:05:19.609Z,11.32
2018-11-05T17:07:48.523Z,11.24
2018-11-05T17:10:17.441Z,11.30
2018-11-05T17:12:46.421Z,11.28
2018-11-05T17:15:16.371Z,11.30
2018-11-05T17:17:45.689Z,11.29
2018-11-05T17:20:15.879Z,11.32
2018-11-05T17:22:45.098Z,11.30
2018-11-05T17:25:14.410Z,11.28
2018-11-05T17:27:43.918Z,11.51
2018-11-05T17:30:15.464Z,11.32
2018-11-05T17:32:44.874Z,11.24
2018-11-05T17:35:14.263Z,11.22
2018-11-05T17:37:43.573Z,11.18
2018-11-05T17:40:13.832Z,11.11
2018-11-05T17:42:42.783Z,11.07
2018-11-05T17:45:13.008Z,11.01
2018-11-05T17:47:42.011Z,11.00
2018-11-05T17:50:13.359Z,10.92
2018-11-05T17:52:42.547Z,10.89
2018-11-05T17:55:12.146Z,10.90
2018-11-05T17:57:42.095Z,10.90
2018-11-05T18:00:13.816Z,10.85
2018-11-05T18:02:42.759Z,10.85
2018-11-05T18:05:11.759Z,10.85
2018-11-05T18:07:40.706Z,10.75
2018-11-05T18:10:09.710Z,10.74
2018-11-05T18:12:38.707Z,10.74
2018-11-05T18:15:09.388Z,11.02
2018-11-05T18:17:38.830Z,11.13
2018-11-05T18:20:09.104Z,10.81
2018-11-05T18:22:38.074Z,11.14
2018-11-05T18:25:08.711Z,10.87
2018-11-05T18:27:37.673Z,10.81
2018-11-05T18:30:07.247Z,10.75
2018-11-05T18:32:36.170Z,11.04
2018-11-05T18:35:05.439Z,10.73
2018-11-05T18:37:34.374Z,10.69
2018-11-05T18:40:03.490Z,10.65
2018-11-05T18:42:32.464Z,10.95
2018-11-05T18:45:01.363Z,10.74
2018-11-05T18:47:30.272Z,10.65
2018-11-05T18:49:59.262Z,10.62
2018-11-05T18:52:28.134Z,10.57
2018-11-05T18:54:57.077Z,10.50
2018-11-05T18:57:26.004Z,10.47
2018-11-05T18:59:54.930Z,10.44
2018-11-05T19:02:33.389Z,10.41
2018-11-05T19:05:02.317Z,10.39
2018-11-05T19:07:31.498Z,10.34
2018-11-05T19:10:00.422Z,10.67
2018-11-05T19:12:29.323Z,10.80
2018-11-05T19:14:58.305Z,10.91
2018-11-05T19:17:27.208Z,10.57
2018-11-05T19:19:56.151Z,10.90
2018-11-05T19:22:25.196Z,10.64
2018-11-05T19:24:53.997Z,10.96
2018-11-05T19:27:22.921Z,10.66
2018-11-05T19:29:51.927Z,10.59
2018-11-05T19:32:20.802Z,10.52
2018-11-05T19:34:49.711Z,10.51
2018-11-05T19:37:18.631Z,10.44
2018-11-05T19:39:47.552Z,10.44
2018-11-05T19:42:16.541Z,10.41
2018-11-05T19:44:45.432Z,10.43
2018-11-05T19:47:14.366Z,10.44
2018-11-05T19:49:43.332Z,10.42
2018-11-05T19:52:12.200Z,10.43
2018-11-05T19:54:42.660Z,10.38
2018-11-05T19:57:11.529Z,10.38
2018-11-05T19:59:40.702Z,10.37
2018-11-05T20:02:11.529Z,10.35
2018-11-05T20:04:40.642Z,10.37
2018-11-05T20:07:10.334Z,10.30
2018-11-05T20:09:39.250Z,10.32
2018-11-05T20:12:08.175Z,10.30
2018-11-05T20:14:37.139Z,10.34
2018-11-05T20:17:06.085Z,10.33
2018-11-05T20:19:35.031Z,10.32
2018-11-05T20:22:03.982Z,10.27
2018-11-05T20:24:32.897Z,10.24
2018-11-05T20:27:01.839Z,10.23
2018-11-05T20:29:30.791Z,10.20
2018-11-05T20:32:00.037Z,10.17
2018-11-05T20:34:28.849Z,10.08
2018-11-05T20:36:57.565Z,10.08
2018-11-05T20:39:26.466Z,10.08
2018-11-05T20:41:56.641Z,10.03
2018-11-05T20:44:25.501Z,10.02
2018-11-05T20:46:54.401Z,9.99
2018-11-05T20:49:23.324Z,9.95
2018-11-05T20:51:52.234Z,10.28
2018-11-05T20:54:21.202Z,10.02
2018-11-05T20:56:50.125Z,9.91
2018-11-05T20:59:19.082Z,9.78
2018-11-05T21:01:48.012Z,9.75
2018-11-05T21:04:16.966Z,9.70
2018-11-05T21:06:45.957Z,10.03
2018-11-05T21:09:14.871Z,10.15
2018-11-05T21:11:43.782Z,9.87
2018-11-05T21:14:12.729Z,9.82
2018-11-05T21:16:41.641Z,9.76
2018-11-05T21:19:10.575Z,9.69
2018-11-05T21:21:39.637Z,9.66
2018-11-05T21:24:08.421Z,9.62
2018-11-05T21:26:37.537Z,9.92
2018-11-05T21:29:06.291Z,9.66
2018-11-05T21:31:35.198Z,9.60
2018-11-05T21:34:04.109Z,9.55
2018-11-05T21:36:33.028Z,9.51
2018-11-05T21:39:01.939Z,9.87
2018-11-05T21:41:30.923Z,9.70
2018-11-05T21:43:59.862Z,10.04
2018-11-05T21:46:28.810Z,9.80
2018-11-05T21:48:57.773Z,9.73
2018-11-05T21:51:26.721Z,10.02
2018-11-05T21:53:55.718Z,9.80
2018-11-05T21:56:24.628Z,9.68
2018-11-05T21:58:53.782Z,9.54
2018-11-05T22:01:23.855Z,9.48
2018-11-05T22:03:52.806Z,9.45
2018-11-05T22:06:21.746Z,9.43
2018-11-05T22:08:50.673Z,9.35
2018-11-05T22:11:19.608Z,9.41
2018-11-05T22:13:48.553Z,9.47
2018-11-05T22:16:17.468Z,9.46
2018-11-05T22:18:46.405Z,9.39
2018-11-05T22:21:15.349Z,9.34
2018-11-05T22:23:44.268Z,9.28
2018-11-05T22:26:13.175Z,9.60
2018-11-05T22:28:42.078Z,9.34
2018-11-05T22:31:10.973Z,9.27
2018-11-05T22:33:39.899Z,9.24
2018-11-05T22:36:08.841Z,9.23
2018-11-05T22:38:37.772Z,9.20
2018-11-05T22:41:07.016Z,9.08
2018-11-05T22:43:35.948Z,9.43
2018-11-05T22:46:05.092Z,9.16
2018-11-05T22:48:34.023Z,9.12
2018-11-05T22:51:02.940Z,9.13
2018-11-05T22:53:31.868Z,9.06
2018-11-05T22:56:00.767Z,9.05
2018-11-05T22:58:29.684Z,8.97
2018-11-05T23:01:08.649Z,8.88
2018-11-05T23:03:37.565Z,8.84
2018-11-05T23:06:06.525Z,8.82
2018-11-05T23:08:35.430Z,8.76
2018-11-05T23:11:04.360Z,8.79
2018-11-05T23:13:33.301Z,8.73
2018-11-05T23:16:02.217Z,8.71
2018-11-05T23:18:31.153Z,8.64
2018-11-05T23:21:00.054Z,8.56
2018-11-05T23:23:28.995Z,8.51
2018-11-05T23:25:57.915Z,8.54
2018-11-05T23:28:27.877Z,8.71
2018-11-05T23:30:56.843Z,8.82
2018-11-05T23:33:25.928Z,8.84
2018-11-05T23:35:54.675Z,8.81
2018-11-05T23:38:23.690Z,9.06
2018-11-05T23:40:52.613Z,8.82
2018-11-05T23:43:21.456Z,8.75
2018-11-05T23:45:50.426Z,8.76
2018-11-05T23:48:19.351Z,8.68
2018-11-05T23:50:48.305Z,8.64
2018-11-05T23:53:17.224Z,8.61
2018-11-05T23:55:46.128Z,8.60
2018-11-05T23:58:15.083Z,8.57
